Time;durP1;ratioP1;P1;durP2;ratioP2;P2;SDS_P1;SDS_P2;PMS_P1;PMS_P2;Temp;Humidity;BMP_temperature;BMP_pressure;BME280_temperature;BME280_humidity;BME280_pressure;Samples;Min_cycle;Max_cycle;Signal;HPM_P1;HPM_P2
2022/09/28 00:01:17;;;;;;;0.60;0.10;;;;;;;10.80;100.00;99313.47;5067824;28;20457;-64
2022/09/28 00:03:47;;;;;;;0.10;0.00;;;;;;;10.70;100.00;99315.50;5066642;28;20526;-63
2022/09/28 00:06:15;;;;;;;2.40;0.03;;;;;;;10.80;100.00;99316.06;5051664;28;20032;-64
2022/09/28 00:08:41;;;;;;;0.10;0.05;;;;;;;10.85;100.00;99311.16;5051719;28;20535;-66
2022/09/28 00:11:14;;;;;;;0.20;0.00;;;;;;;10.78;100.00;99319.84;5118095;22;20067;-63
2022/09/28 00:13:41;;;;;;;0.60;0.10;;;;;;;10.71;100.00;99319.72;5064481;28;20112;-65
2022/09/28 00:16:12;;;;;;;0.85;0.00;;;;;;;10.65;100.00;99320.41;5065497;28;20045;-65
2022/09/28 00:18:38;;;;;;;0.20;0.10;;;;;;;10.59;100.00;99326.28;5064460;28;20031;-66
2022/09/28 00:21:04;;;;;;;0.50;0.00;;;;;;;10.56;100.00;99321.44;5063818;28;20025;-64
2022/09/28 00:23:30;;;;;;;2.15;0.10;;;;;;;10.55;100.00;99325.03;5065878;28;20025;-63
2022/09/28 00:26:04;;;;;;;0.13;0.00;;;;;;;10.52;100.00;99331.38;5067891;28;20076;-64
2022/09/28 00:28:30;;;;;;;0.10;0.00;;;;;;;10.47;100.00;99323.25;5064992;28;20048;-66
2022/09/28 00:30:56;;;;;;;2.72;0.10;;;;;;;10.45;100.00;99324.41;5062289;28;20692;-66
2022/09/28 00:33:22;;;;;;;0.08;0.00;;;;;;;10.37;100.00;99325.31;5067612;28;20024;-64
2022/09/28 00:35:57;;;;;;;0.43;0.10;;;;;;;10.41;100.00;99323.13;5067828;28;20065;-65
2022/09/28 00:38:27;;;;;;;1.23;0.10;;;;;;;10.41;100.00;99315.31;5066615;28;20020;-63
2022/09/28 00:40:54;;;;;;;0.98;0.10;;;;;;;10.39;100.00;99309.50;5063682;28;20388;-65
2022/09/28 00:43:21;;;;;;;0.20;0.10;;;;;;;10.32;100.00;99308.56;5067965;28;20189;-64
2022/09/28 00:46:03;;;;;;;3.55;0.10;;;;;;;10.24;100.00;99305.03;5066487;28;20029;-64
2022/09/28 00:48:33;;;;;;;0.57;0.00;;;;;;;10.17;100.00;99308.44;5065525;28;20039;-63
2022/09/28 00:51:04;;;;;;;1.42;0.10;;;;;;;10.18;100.00;99317.88;5059870;28;20520;-64
2022/09/28 00:53:33;;;;;;;1.42;0.00;;;;;;;10.18;100.00;99321.28;5054337;28;21377;-66
2022/09/28 00:56:03;;;;;;;0.52;0.10;;;;;;;10.15;100.00;99308.59;5065914;28;20063;-66
2022/09/28 00:58:33;;;;;;;0.82;0.10;;;;;;;10.12;100.00;99314.16;5067576;28;20508;-63
2022/09/28 01:00:59;;;;;;;0.20;0.00;;;;;;;10.18;100.00;99307.44;5064789;28;20020;-65
2022/09/28 01:03:27;;;;;;;0.70;0.10;;;;;;;10.23;100.00;99319.00;5066341;28;20028;-63
2022/09/28 01:05:55;;;;;;;1.20;0.00;;;;;;;10.24;100.00;99312.00;5065109;28;20552;-63
2022/09/28 01:08:22;;;;;;;1.17;0.10;;;;;;;10.21;100.00;99305.34;5067089;28;20450;-66
2022/09/28 01:10:48;;;;;;;0.95;0.10;;;;;;;10.24;100.00;99301.59;5063432;28;20056;-66
2022/09/28 01:13:15;;;;;;;0.50;0.20;;;;;;;10.26;100.00;99308.25;5064255;28;20444;-68
2022/09/28 01:16:07;;;;;;;1.35;0.10;;;;;;;10.23;100.00;99305.19;5066192;28;20024;-63
2022/09/28 01:18:54;;;;;;;0.32;0.00;;;;;;;10.17;100.00;99298.84;5059591;28;20032;-64
2022/09/28 01:21:22;;;;;;;0.22;0.00;;;;;;;10.27;100.00;99288.25;5069656;28;20075;-64
2022/09/28 01:24:05;;;;;;;0.10;0.00;;;;;;;10.73;100.00;99286.50;5069356;28;20032;-66
2022/09/28 01:26:45;;;;;;;0.03;0.00;;;;;;;11.06;100.00;99271.38;5070623;28;20083;-63
2022/09/28 01:29:11;;;;;;;0.75;0.00;;;;;;;11.26;100.00;99275.13;5069366;28;20032;-64
2022/09/28 01:31:44;;;;;;;1.38;0.00;;;;;;;11.48;100.00;99273.41;5069508;28;20028;-65
2022/09/28 01:34:16;;;;;;;0.15;0.05;;;;;;;11.57;100.00;99289.81;5068043;28;20033;-67
2022/09/28 01:36:46;;;;;;;0.28;0.00;;;;;;;11.59;100.00;99298.25;5070647;28;20484;-63
2022/09/28 01:39:33;;;;;;;1.65;0.00;;;;;;;11.47;100.00;99299.69;5067955;28;20539;-67
2022/09/28 01:42:04;;;;;;;0.35;0.10;;;;;;;11.55;100.00;99286.56;5068475;28;20093;-66
2022/09/28 01:44:38;;;;;;;0.30;0.10;;;;;;;11.38;100.00;99295.53;5067970;28;20460;-65
2022/09/28 01:47:08;;;;;;;0.40;0.03;;;;;;;11.15;100.00;99296.41;5068052;28;20547;-64
2022/09/28 01:49:39;;;;;;;2.35;0.10;;;;;;;10.92;100.00;99304.22;5070358;28;20036;-64
2022/09/28 01:52:24;;;;;;;0.60;0.10;;;;;;;10.63;100.00;99312.75;5067972;28;20105;-66
2022/09/28 01:55:02;;;;;;;0.10;0.00;;;;;;;10.53;100.00;99309.56;5068228;28;20131;-66
2022/09/28 01:57:41;;;;;;;0.30;0.10;;;;;;;10.48;100.00;99295.44;5070427;28;20090;-65
2022/09/28 02:00:13;;;;;;;1.95;0.00;;;;;;;10.43;100.00;99301.16;5070649;28;20144;-64
2022/09/28 02:02:47;;;;;;;1.60;0.10;;;;;;;10.36;100.00;99307.25;5068450;28;20059;-64
2022/09/28 02:05:32;;;;;;;1.65;0.05;;;;;;;10.20;100.00;99313.34;5066894;28;20032;-65
2022/09/28 02:08:27;;;;;;;0.20;0.00;;;;;;;10.12;100.00;99311.53;5068176;28;20032;-65
2022/09/28 02:11:18;;;;;;;0.22;0.00;;;;;;;9.99;100.00;99311.25;5066029;28;20131;-64
2022/09/28 02:13:53;;;;;;;0.10;0.00;;;;;;;10.01;100.00;99305.91;5069834;28;20028;-66
2022/09/28 02:16:32;;;;;;;0.57;0.00;;;;;;;10.04;100.00;99310.75;5065445;28;20028;-65
2022/09/28 02:18:57;;;;;;;0.68;0.10;;;;;;;9.93;100.00;99304.13;5069746;28;20423;-66
2022/09/28 02:21:47;;;;;;;0.80;0.03;;;;;;;9.88;100.00;99306.44;5070116;28;20085;-67
2022/09/28 02:24:18;;;;;;;1.10;0.00;;;;;;;9.89;100.00;99313.28;5068913;28;20028;-63
2022/09/28 02:26:48;;;;;;;0.10;0.00;;;;;;;9.86;100.00;99314.44;5067498;28;20032;-66
2022/09/28 02:29:14;;;;;;;0.68;0.00;;;;;;;9.76;100.00;99316.41;5068273;28;20029;-66
2022/09/28 02:31:39;;;;;;;0.20;0.10;;;;;;;9.83;100.00;99316.53;5063913;28;20016;-64
2022/09/28 02:34:05;;;;;;;0.20;0.10;;;;;;;9.96;100.00;99317.63;5069376;28;20067;-66
2022/09/28 02:36:32;;;;;;;0.90;0.10;;;;;;;9.97;100.00;99318.44;5069329;28;20027;-65
2022/09/28 02:39:01;;;;;;;0.73;0.03;;;;;;;9.92;100.00;99313.72;5065787;28;20094;-65
2022/09/28 02:41:29;;;;;;;1.88;0.00;;;;;;;9.89;100.00;99321.91;5253333;22;20828;-86
2022/09/28 02:44:06;;;;;;;0.35;0.10;;;;;;;9.88;100.00;99324.66;5050556;28;20134;-89
2022/09/28 02:46:38;;;;;;;0.20;0.10;;;;;;;9.92;100.00;99318.16;5048761;28;20097;-87
2022/09/28 02:49:16;;;;;;;0.30;0.10;;;;;;;9.92;100.00;99324.13;5045887;28;20452;-90
2022/09/28 02:52:00;;;;;;;3.30;0.10;;;;;;;9.81;100.00;99331.50;5051369;28;20033;-87
2022/09/28 02:54:43;;;;;;;1.58;0.10;;;;;;;9.82;100.00;99326.13;5050171;28;20021;-91
2022/09/28 02:57:40;;;;;;;1.75;0.10;;;;;;;9.90;100.00;99336.53;5032638;28;20052;-88
2022/09/28 03:00:14;;;;;;;0.10;0.10;;;;;;;9.88;100.00;99332.47;5035273;28;20052;-86
2022/09/28 03:02:45;;;;;;;4.20;0.10;;;;;;;9.82;100.00;99325.31;5055170;28;20048;-89
2022/09/28 03:05:32;;;;;;;1.00;0.10;;;;;;;9.80;100.00;99325.50;5055001;28;20101;-87
2022/09/28 03:08:01;;;;;;;0.30;0.10;;;;;;;9.71;100.00;99325.69;5054922;28;20036;-88
2022/09/28 03:10:49;;;;;;;0.60;0.10;;;;;;;9.64;100.00;99326.34;5033326;28;20079;-86
2022/09/28 03:13:16;;;;;;;1.00;0.10;;;;;;;9.63;100.00;99324.72;5050249;28;20033;-87
2022/09/28 03:15:43;;;;;;;0.20;0.00;;;;;;;9.60;100.00;99335.44;5050414;28;20488;-84
2022/09/28 03:18:09;;;;;;;2.20;0.10;;;;;;;9.59;100.00;99327.81;5050698;28;20431;-87
2022/09/28 03:20:34;;;;;;;2.53;0.10;;;;;;;9.59;100.00;99333.00;5032551;28;20029;-89
2022/09/28 03:23:00;;;;;;;3.65;0.43;;;;;;;9.56;100.00;99336.75;5049039;28;20017;-84
2022/09/28 03:25:26;;;;;;;1.02;0.10;;;;;;;9.51;100.00;99344.22;5032472;28;20021;-88
2022/09/28 03:27:52;;;;;;;2.03;0.45;;;;;;;9.46;100.00;99333.50;5036355;28;20361;-84
2022/09/28 03:30:17;;;;;;;0.98;0.28;;;;;;;9.49;100.00;99327.16;5034950;28;20078;-88
2022/09/28 03:32:43;;;;;;;2.05;0.22;;;;;;;9.53;100.00;99329.28;5052158;28;20035;-92
2022/09/28 03:35:09;;;;;;;1.38;0.28;;;;;;;9.53;100.00;99329.28;5055976;28;20026;-88
2022/09/28 03:37:35;;;;;;;1.00;0.20;;;;;;;9.48;100.00;99331.56;5057753;28;20074;-88
2022/09/28 03:40:02;;;;;;;0.75;0.22;;;;;;;9.46;100.00;99333.50;5035469;28;20488;-90
2022/09/28 03:42:27;;;;;;;1.40;0.30;;;;;;;9.43;100.00;99333.88;5052402;28;20041;-88
2022/09/28 03:44:52;;;;;;;1.95;0.30;;;;;;;9.44;100.00;99330.28;5051809;28;20021;-87
2022/09/28 03:47:18;;;;;;;1.63;0.30;;;;;;;9.46;100.00;99330.91;5033453;28;20056;-86
2022/09/28 03:49:44;;;;;;;0.82;0.30;;;;;;;9.40;100.00;99316.00;5035444;28;20064;-89
2022/09/28 03:52:10;;;;;;;1.98;0.50;;;;;;;9.48;100.00;99315.97;5050893;28;20025;-85
2022/09/28 03:54:36;;;;;;;1.92;0.40;;;;;;;9.53;100.00;99318.06;5049858;28;20031;-90
2022/09/28 03:57:01;;;;;;;6.53;0.50;;;;;;;9.54;100.00;99317.09;5049521;28;20573;-84
2022/09/28 03:59:27;;;;;;;3.10;0.40;;;;;;;9.56;100.00;99320.34;5050377;28;20032;-86
2022/09/28 04:01:52;;;;;;;1.23;0.30;;;;;;;9.54;100.00;99317.09;5031987;28;20025;-86
2022/09/28 04:04:18;;;;;;;1.58;0.30;;;;;;;9.46;100.00;99307.50;5049582;28;20079;-88
2022/09/28 04:06:43;;;;;;;1.35;0.65;;;;;;;9.50;100.00;99308.00;5031650;28;20052;-89
2022/09/28 04:09:09;;;;;;;3.97;0.40;;;;;;;9.55;100.00;99301.31;5030787;28;20045;-90
2022/09/28 04:11:35;;;;;;;2.25;0.40;;;;;;;9.57;100.00;99298.56;5031256;28;20033;-87
2022/09/28 04:14:01;;;;;;;2.15;0.20;;;;;;;9.52;100.00;99296.47;5030985;28;20051;-85
2022/09/28 04:16:26;;;;;;;6.78;0.43;;;;;;;9.44;100.00;99306.91;5050365;28;20029;-85
2022/09/28 04:18:52;;;;;;;0.40;0.20;;;;;;;9.42;100.00;99311.44;5031992;28;20074;-88
2022/09/28 04:21:18;;;;;;;1.45;0.40;;;;;;;9.43;100.00;99307.88;5032148;28;20060;-87
2022/09/28 04:23:45;;;;;;;3.03;0.30;;;;;;;9.46;100.00;99312.72;5049766;28;20025;-83
2022/09/28 04:26:19;;;;;;;0.32;0.20;;;;;;;9.48;100.00;99308.16;5049579;28;20052;-87
2022/09/28 04:31:30;;;;;;;1.65;0.30;;;;;;;9.58;100.00;99305.38;5049981;28;20574;-86
2022/09/28 04:33:56;;;;;;;0.98;0.25;;;;;;;9.63;100.00;99303.91;5024013;28;20033;-87
2022/09/28 04:36:23;;;;;;;0.93;0.20;;;;;;;9.62;100.00;99291.88;5012086;28;20030;-90
2022/09/28 04:38:53;;;;;;;2.85;0.20;;;;;;;9.61;100.00;99305.88;5036852;28;20049;-87
2022/09/28 04:41:19;;;;;;;4.05;0.30;;;;;;;9.67;100.00;99306.19;5050454;28;20438;-89
2022/09/28 04:43:48;;;;;;;3.95;0.32;;;;;;;9.81;100.00;99313.31;5021932;28;20061;-87
2022/09/28 04:46:14;;;;;;;5.63;0.50;;;;;;;9.85;100.00;99317.19;5024556;28;20098;-87
2022/09/28 04:48:39;;;;;;;3.65;0.70;;;;;;;9.79;100.00;99316.06;5015576;28;20033;-86
2022/09/28 04:51:05;;;;;;;0.75;0.30;;;;;;;9.78;100.00;99300.63;5045250;28;20094;-85
2022/09/28 04:53:30;;;;;;;0.77;0.40;;;;;;;9.76;100.00;99303.41;5032375;28;20048;-88
2022/09/28 04:56:12;;;;;;;0.60;0.43;;;;;;;9.75;100.00;99300.97;5050636;28;20041;-88
2022/09/28 04:58:38;;;;;;;1.45;0.30;;;;;;;9.75;100.00;99298.34;5034833;28;20063;-88
2022/09/28 05:01:07;;;;;;;2.00;0.55;;;;;;;9.76;100.00;99302.59;5043650;28;20084;-87
2022/09/28 05:03:35;;;;;;;1.67;0.40;;;;;;;9.76;100.00;99297.38;5014301;28;20025;-87
2022/09/28 05:06:01;;;;;;;2.42;0.88;;;;;;;9.77;100.00;99299.00;5038094;28;20500;-86
2022/09/28 05:08:27;;;;;;;1.70;0.57;;;;;;;9.77;100.00;99299.00;5051218;28;20021;-84
2022/09/28 05:11:00;;;;;;;2.63;0.60;;;;;;;9.77;100.00;99294.63;5049400;28;20025;-84
2022/09/28 05:13:34;;;;;;;3.13;0.40;;;;;;;9.80;100.00;99303.88;5023798;28;20097;-88
2022/09/28 05:16:00;;;;;;;0.80;0.25;;;;;;;9.84;100.00;99310.38;5071780;28;20044;-84
2022/09/28 05:18:26;;;;;;;1.88;0.20;;;;;;;9.91;100.00;99319.94;5062044;28;20416;-83
2022/09/28 05:20:51;;;;;;;1.23;0.30;;;;;;;9.97;100.00;99327.03;5032601;28;20029;-85
2022/09/28 05:23:17;;;;;;;1.95;0.20;;;;;;;10.00;100.00;99325.91;5031355;28;20086;-84
2022/09/28 05:25:44;;;;;;;1.08;0.30;;;;;;;10.04;100.00;99334.19;5050046;28;20036;-84
2022/09/28 05:28:10;;;;;;;2.47;0.30;;;;;;;10.09;100.00;99335.31;5050410;28;20040;-83
2022/09/28 05:30:36;;;;;;;1.67;0.35;;;;;;;10.11;100.00;99335.94;5049776;28;20059;-84
2022/09/28 05:33:03;;;;;;;2.17;0.30;;;;;;;10.14;100.00;99327.81;5050252;28;20049;-84
2022/09/28 05:35:29;;;;;;;3.05;0.30;;;;;;;10.20;100.00;99329.75;5039887;28;20485;-86
2022/09/28 05:37:55;;;;;;;1.50;0.32;;;;;;;10.23;100.00;99336.44;5022369;28;20249;-85
2022/09/28 05:40:20;;;;;;;2.22;0.30;;;;;;;10.30;100.00;99337.38;5029406;28;20029;-87
2022/09/28 05:42:46;;;;;;;1.25;0.35;;;;;;;10.34;100.00;99343.06;5046523;28;20679;-84
2022/09/28 05:45:11;;;;;;;1.83;0.70;;;;;;;10.47;100.00;99351.09;5017173;28;20400;-87
2022/09/28 05:47:42;;;;;;;1.48;0.40;;;;;;;10.58;100.00;99345.50;5040599;28;20038;-83
2022/09/28 05:50:10;;;;;;;1.75;0.40;;;;;;;10.66;100.00;99339.44;5035363;28;20037;-87
2022/09/28 05:52:39;;;;;;;0.73;0.40;;;;;;;10.68;100.00;99335.69;5043074;28;20029;-87
2022/09/28 05:55:05;;;;;;;1.27;0.32;;;;;;;10.76;100.00;99340.84;5044837;28;20055;-84
2022/09/28 05:57:31;;;;;;;4.50;0.47;;;;;;;10.83;100.00;99323.53;5044123;28;20486;-87
2022/09/28 05:59:56;;;;;;;1.38;0.40;;;;;;;10.86;100.00;99322.38;5031562;28;20168;-89
2022/09/28 06:02:22;;;;;;;2.55;0.60;;;;;;;10.91;100.00;99314.84;5041156;28;20033;-88
2022/09/28 06:04:49;;;;;;;1.52;0.20;;;;;;;11.13;100.00;99313.22;5013751;28;20116;-85
2022/09/28 06:07:21;;;;;;;1.33;0.10;;;;;;;11.48;100.00;99312.53;5012961;28;20034;-87
2022/09/28 06:09:47;;;;;;;1.23;0.20;;;;;;;11.70;100.00;99317.88;5042383;28;20040;-87
2022/09/28 06:12:14;;;;;;;0.65;0.13;;;;;;;11.78;100.00;99315.22;5050296;28;20496;-88
2022/09/28 06:14:40;;;;;;;1.92;0.10;;;;;;;11.82;100.00;99321.66;5049044;28;20025;-87
2022/09/28 06:17:05;;;;;;;1.85;0.20;;;;;;;11.87;100.00;99320.16;5038726;28;20077;-88
2022/09/28 06:19:31;;;;;;;2.35;0.25;;;;;;;11.94;100.00;99322.84;5031128;28;20108;-87
2022/09/28 06:21:56;;;;;;;2.05;0.20;;;;;;;11.97;100.00;99312.03;5032115;28;20377;-86
2022/09/28 06:24:22;;;;;;;0.93;0.20;;;;;;;12.02;100.00;99314.94;5030868;28;20090;-87
2022/09/28 06:26:47;;;;;;;2.53;0.60;;;;;;;12.02;100.00;99322.75;5038965;28;20083;-84
2022/09/28 06:29:17;;;;;;;2.88;0.40;;;;;;;11.91;100.00;99318.00;5016192;28;20488;-85
2022/09/28 06:31:42;;;;;;;2.60;0.38;;;;;;;11.88;100.00;99323.56;5049201;28;20032;-84
2022/09/28 06:34:09;;;;;;;5.22;0.40;;;;;;;11.92;100.00;99322.22;5034324;28;20030;-85
2022/09/28 06:36:34;;;;;;;4.63;0.50;;;;;;;11.98;100.00;99320.69;5030218;28;20059;-83
2022/09/28 06:38:59;;;;;;;2.10;0.25;;;;;;;11.98;100.00;99313.66;5035030;28;20071;-87
2022/09/28 06:41:25;;;;;;;1.20;0.40;;;;;;;12.01;100.00;99312.50;5028030;28;20021;-88
2022/09/28 06:43:51;;;;;;;1.40;0.30;;;;;;;12.00;100.00;99306.47;5047255;28;20029;-88
2022/09/28 06:46:16;;;;;;;0.95;0.20;;;;;;;12.03;100.00;99298.28;5030986;28;20161;-89
2022/09/28 06:48:43;;;;;;;1.95;0.20;;;;;;;12.05;100.00;99292.88;5038222;28;20481;-88
2022/09/28 06:51:09;;;;;;;5.43;0.20;;;;;;;12.11;100.00;99303.41;5021076;28;20037;-87
2022/09/28 06:53:35;;;;;;;0.85;0.20;;;;;;;12.18;100.00;99301.69;5017133;28;20033;-84
2022/09/28 06:56:01;;;;;;;1.85;0.20;;;;;;;12.29;100.00;99290.72;5050074;28;20392;-87
2022/09/28 06:58:27;;;;;;;1.58;0.10;;;;;;;12.45;100.00;99300.16;5032172;28;20407;-87
2022/09/28 07:00:58;;;;;;;4.93;0.70;;;;;;;12.61;100.00;99293.91;5047062;28;20072;-87
2022/09/28 07:03:23;;;;;;;1.45;0.10;;;;;;;12.72;100.00;99300.44;5036879;28;20032;-85
2022/09/28 07:05:52;;;;;;;0.88;0.10;;;;;;;12.81;100.00;99305.34;5012088;28;20026;-87
2022/09/28 07:08:20;;;;;;;1.25;0.28;;;;;;;12.87;100.00;99315.06;5037670;28;20562;-86
2022/09/28 07:10:48;;;;;;;1.42;0.20;;;;;;;12.92;100.00;99302.22;5030653;28;20056;-85
2022/09/28 07:13:16;;;;;;;1.48;0.20;;;;;;;12.91;100.00;99305.03;5023186;28;20128;-83
2022/09/28 07:15:42;;;;;;;0.38;0.20;;;;;;;12.84;100.00;99304.16;5027323;28;20511;-89
2022/09/28 07:18:09;;;;;;;0.93;0.13;;;;;;;12.82;100.00;99306.16;5015821;28;20127;-84
2022/09/28 07:20:36;;;;;;;0.88;0.10;;;;;;;12.79;100.00;99306.53;5011854;28;20028;-89
2022/09/28 07:23:04;;;;;;;5.60;0.22;;;;;;;12.75;100.00;99308.72;5020506;28;20138;-89
2022/09/28 07:25:31;;;;;;;0.75;0.32;;;;;;;12.75;100.00;99316.56;5049590;28;20108;-86
2022/09/28 07:28:01;;;;;;;0.73;0.13;;;;;;;12.77;100.00;99309.31;5047645;28;20025;-84
2022/09/28 07:30:32;;;;;;;0.40;0.20;;;;;;;12.82;100.00;99311.38;5049838;28;20031;-85
2022/09/28 07:32:58;;;;;;;1.27;0.38;;;;;;;12.86;100.00;99313.44;5048639;28;20033;-85
2022/09/28 07:35:24;;;;;;;0.80;0.30;;;;;;;12.88;100.00;99321.09;5068790;28;20045;-83
2022/09/28 07:37:57;;;;;;;0.52;0.10;;;;;;;12.84;100.00;99320.66;5055920;28;20090;-82
2022/09/28 07:43:11;;;;;;;1.13;0.10;;;;;;;12.89;100.00;99315.66;5052487;28;20087;-87
2022/09/28 07:45:37;;;;;;;0.90;0.10;;;;;;;12.88;100.00;99306.22;5053198;28;20059;-83
2022/09/28 07:48:03;;;;;;;3.95;0.30;;;;;;;12.89;100.00;99313.06;5023352;28;20128;-86
2022/09/28 07:50:29;;;;;;;1.40;0.10;;;;;;;12.86;100.00;99299.56;5040101;28;20041;-86
2022/09/28 07:52:57;;;;;;;1.10;0.10;;;;;;;12.84;100.00;99304.16;5023882;28;20338;-85
2022/09/28 07:55:23;;;;;;;0.30;0.00;;;;;;;12.81;100.00;99302.72;5015668;28;20029;-87
2022/09/28 07:57:59;;;;;;;3.83;0.30;;;;;;;12.77;100.00;99304.09;5045485;28;20033;-86
2022/09/28 08:00:26;;;;;;;0.30;0.10;;;;;;;12.76;100.00;99307.69;5028745;28;20040;-84
2022/09/28 08:02:51;;;;;;;1.33;0.20;;;;;;;12.75;100.00;99306.09;5027321;28;20456;-84
2022/09/28 08:05:17;;;;;;;1.50;0.10;;;;;;;12.71;100.00;99304.84;5026171;28;20052;-85
2022/09/28 08:07:43;;;;;;;0.88;0.10;;;;;;;12.75;100.00;99313.13;5031507;28;20037;-84
2022/09/28 08:10:09;;;;;;;0.32;0.10;;;;;;;12.84;100.00;99312.00;5017363;28;20029;-85
2022/09/28 08:12:34;;;;;;;2.70;0.10;;;;;;;12.94;100.00;99312.50;5026629;28;20040;-86
2022/09/28 08:15:00;;;;;;;0.20;0.10;;;;;;;13.00;100.00;99310.94;5042911;28;20120;-86
2022/09/28 08:17:26;;;;;;;1.27;0.10;;;;;;;13.03;100.00;99321.03;5023678;28;20041;-85
2022/09/28 08:22:46;;;;;;;0.20;0.10;;;;;;;13.03;100.00;99297.50;5028809;28;20075;-84
2022/09/28 08:25:14;;;;;;;3.00;0.10;;;;;;;13.04;100.00;99306.97;5029414;28;20389;-85
2022/09/28 08:27:39;;;;;;;0.50;0.10;;;;;;;13.13;100.00;99292.75;5025643;28;20060;-85
2022/09/28 08:30:05;;;;;;;3.70;0.20;;;;;;;13.21;100.00;99297.88;5019301;28;20516;-85
2022/09/28 08:32:31;;;;;;;0.35;0.10;;;;;;;13.28;100.00;99296.09;5013786;28;20029;-86
2022/09/28 08:34:57;;;;;;;0.60;0.10;;;;;;;13.36;100.00;99287.31;5014310;28;20056;-84
2022/09/28 08:37:22;;;;;;;0.60;0.10;;;;;;;13.47;100.00;99295.44;5032140;28;20065;-83
2022/09/28 08:39:48;;;;;;;0.32;0.20;;;;;;;13.57;100.00;99295.91;5028572;28;20036;-85
2022/09/28 08:42:28;;;;;;;0.45;0.20;;;;;;;13.63;100.00;99299.56;5051685;28;20041;-84
2022/09/28 08:44:57;;;;;;;0.80;0.20;;;;;;;13.65;100.00;99294.97;5051751;28;20039;-82
2022/09/28 08:50:25;;;;;;;0.60;0.10;;;;;;;13.59;100.00;99288.69;5039972;28;20215;-85
2022/09/28 08:52:58;;;;;;;1.10;0.20;;;;;;;13.64;100.00;99284.69;5014108;28;20385;-85
2022/09/28 08:55:33;;;;;;;1.35;0.10;;;;;;;13.69;100.00;99284.91;5031756;28;20443;-83
2022/09/28 08:58:13;;;;;;;0.45;0.10;;;;;;;13.69;100.00;99285.72;5036996;28;20056;-85
2022/09/28 09:00:45;;;;;;;0.63;0.10;;;;;;;13.73;100.00;99288.72;5033432;28;20083;-85
2022/09/28 09:03:28;;;;;;;;;;;;;;;;;;;;;
2022/09/28 09:06:19;;;;;;;0.68;0.13;;;;;;;13.66;100.00;99286.09;5031779;28;20052;-85
2022/09/28 09:09:30;;;;;;;4.07;0.20;;;;;;;13.66;100.00;99282.69;5019800;28;20029;-85
2022/09/28 09:12:24;;;;;;;1.38;0.10;;;;;;;13.66;100.00;99277.44;5030333;28;20489;-81
2022/09/28 09:14:49;;;;;;;0.57;0.10;;;;;;;13.72;100.00;99274.03;5031047;28;20087;-83
2022/09/28 09:18:00;;;;;;;2.03;0.13;;;;;;;13.65;100.00;99276.63;5030846;28;20037;-82
2022/09/28 09:20:50;;;;;;;0.60;0.10;;;;;;;13.69;100.00;99272.63;5033050;28;20374;-83
2022/09/28 09:23:28;;;;;;;1.60;0.20;;;;;;;13.70;100.00;99274.25;5031372;28;20397;-84
2022/09/28 09:26:02;;;;;;;1.50;0.10;;;;;;;13.70;100.00;99279.50;5030837;28;20061;-85
2022/09/28 09:28:47;;;;;;;0.75;0.20;;;;;;;13.67;100.00;99277.25;5030875;28;20072;-82
2022/09/28 09:31:38;;;;;;;3.75;0.10;;;;;;;13.69;100.00;99274.44;5039524;28;20484;-84
2022/09/28 09:34:36;;;;;;;2.63;0.20;;;;;;;13.73;100.00;99265.97;5050419;28;20047;-82
2022/09/28 09:37:28;;;;;;;3.03;0.10;;;;;;;13.78;100.00;99268.03;4968432;28;20247;-80
2022/09/28 09:40:03;;;;;;;2.20;0.20;;;;;;;13.82;100.00;99271.88;4952588;28;20089;-82
2022/09/28 09:42:50;;;;;;;1.13;0.10;;;;;;;13.84;100.00;99275.09;4966803;28;20404;-85
2022/09/28 09:45:38;;;;;;;1.08;0.10;;;;;;;13.86;100.00;99268.66;4968323;28;20356;-80
2022/09/28 09:48:14;;;;;;;0.57;0.10;;;;;;;13.88;100.00;99266.66;4967119;28;20034;-80
2022/09/28 09:50:48;;;;;;;2.28;0.20;;;;;;;13.82;100.00;99277.09;4950109;29;20127;-80
2022/09/28 09:53:27;;;;;;;1.65;0.10;;;;;;;13.77;100.00;99275.06;4950586;29;20051;-83
2022/09/28 09:55:59;;;;;;;1.10;0.10;;;;;;;13.65;100.00;99273.22;4950538;29;20027;-82
2022/09/28 09:58:36;;;;;;;0.80;0.10;;;;;;;13.59;100.00;99269.56;4949559;28;20071;-81
2022/09/28 10:01:09;;;;;;;2.08;0.43;;;;;;;13.56;100.00;99268.13;4947544;28;20396;-82
2022/09/28 10:03:41;;;;;;;4.38;1.30;;;;;;;13.56;100.00;99273.38;4961654;28;20133;-84
2022/09/28 10:06:30;;;;;;;1.42;0.40;;;;;;;13.54;100.00;99269.31;4969535;28;20077;-85
2022/09/28 10:09:38;;;;;;;1.65;0.20;;;;;;;13.51;100.00;99278.38;4974271;28;20062;-82
2022/09/28 10:12:08;;;;;;;0.40;0.20;;;;;;;13.54;100.00;99269.31;4942447;28;20103;-84
2022/09/28 10:14:37;;;;;;;1.70;0.13;;;;;;;13.58;100.00;99266.13;4952549;28;20040;-83
2022/09/28 10:17:03;;;;;;;1.27;0.10;;;;;;;13.60;100.00;99263.31;4933181;29;20071;-85
2022/09/28 10:19:33;;;;;;;1.45;0.25;;;;;;;13.60;100.00;99263.31;4932352;29;20060;-83
2022/09/28 10:22:02;;;;;;;3.67;0.50;;;;;;;13.65;100.00;99266.16;4958620;28;20032;-84
2022/09/28 10:24:39;;;;;;;1.52;0.13;;;;;;;13.76;100.00;99270.84;4949185;28;20198;-82
2022/09/28 10:27:16;;;;;;;1.67;0.20;;;;;;;13.89;100.00;99263.06;4949326;28;20039;-85
2022/09/28 10:29:51;;;;;;;1.83;0.20;;;;;;;13.97;100.00;99262.06;4935836;29;20047;-84
2022/09/28 10:32:22;;;;;;;1.52;0.10;;;;;;;14.05;100.00;99251.44;4975896;28;20031;-83
2022/09/28 10:34:49;;;;;;;2.70;0.20;;;;;;;14.14;100.00;99254.69;4914874;29;20046;-85
2022/09/28 10:37:17;;;;;;;1.27;0.20;;;;;;;14.20;100.00;99249.44;4930192;29;20502;-86
2022/09/28 10:39:54;;;;;;;3.50;0.20;;;;;;;14.22;100.00;99244.00;4939846;29;20542;-86
2022/09/28 10:42:27;;;;;;;1.88;0.30;;;;;;;14.20;100.00;99246.84;4950108;28;20255;-87
2022/09/28 10:45:22;;;;;;;2.42;0.22;;;;;;;14.23;100.00;99241.19;5011575;28;20025;-83
2022/09/28 10:47:49;;;;;;;2.25;0.20;;;;;;;14.22;100.00;99229.09;5009571;28;20038;-84
2022/09/28 10:50:22;;;;;;;2.28;0.20;;;;;;;14.26;100.00;99232.94;4989350;28;20038;-83
2022/09/28 10:52:48;;;;;;;2.15;0.20;;;;;;;14.35;100.00;99230.16;4991362;28;20125;-83
2022/09/28 10:55:20;;;;;;;2.20;0.20;;;;;;;14.38;100.00;99224.50;5006371;28;20064;-83
2022/09/28 10:57:46;;;;;;;0.75;0.40;;;;;;;14.42;100.00;99226.56;5010213;28;20101;-86
2022/09/28 11:00:41;;;;;;;4.43;0.30;;;;;;;14.42;100.00;99220.53;5010239;28;20026;-84
2022/09/28 11:03:28;;;;;;;1.20;0.30;;;;;;;14.48;100.00;99210.06;5002293;28;20502;-83
2022/09/28 11:06:01;;;;;;;2.83;0.50;;;;;;;14.58;100.00;99214.91;4994545;28;20858;-83
2022/09/28 11:08:33;;;;;;;1.55;0.20;;;;;;;14.68;100.00;99210.03;5008737;28;20065;-86
2022/09/28 11:11:09;;;;;;;3.67;0.30;;;;;;;14.74;100.00;99214.50;5008277;28;20032;-85
2022/09/28 11:13:47;;;;;;;1.20;0.20;;;;;;;14.84;100.00;99209.66;5011340;28;20085;-85
2022/09/28 11:16:29;;;;;;;2.25;0.30;;;;;;;14.94;100.00;99212.69;5009034;28;20045;-87
2022/09/28 11:18:56;;;;;;;2.28;0.13;;;;;;;15.11;100.00;99199.16;5005132;28;20394;-85
2022/09/28 11:21:30;;;;;;;3.72;0.20;;;;;;;15.21;100.00;99204.75;5010693;28;20036;-85
2022/09/28 11:24:00;;;;;;;6.47;0.20;;;;;;;15.31;100.00;99209.59;5026279;28;20029;-87
2022/09/28 11:26:33;;;;;;;1.73;0.20;;;;;;;15.33;100.00;99197.06;5006832;28;20030;-87
2022/09/28 11:28:58;;;;;;;3.58;0.20;;;;;;;15.30;100.00;99208.78;5005754;28;20029;-84
2022/09/28 11:31:27;;;;;;;0.85;0.10;;;;;;;15.27;100.00;99209.19;5010055;28;20030;-87
2022/09/28 11:34:04;;;;;;;0.98;0.20;;;;;;;15.18;100.00;99205.16;5008936;28;20032;-83
2022/09/28 11:36:44;;;;;;;1.08;0.20;;;;;;;15.10;100.00;99202.78;5005341;28;20113;-83
2022/09/28 11:39:31;;;;;;;1.67;0.20;;;;;;;14.99;100.00;99208.66;5016455;28;20049;-85
2022/09/28 11:42:14;;;;;;;3.70;0.22;;;;;;;14.94;100.00;99214.50;5012828;28;20098;-84
2022/09/28 11:44:47;;;;;;;4.63;0.80;;;;;;;14.91;100.00;99205.22;5048202;28;20060;-84
2022/09/28 11:47:40;;;;;;;3.50;0.20;;;;;;;14.82;100.00;99206.44;5047117;28;20032;-83
2022/09/28 11:50:44;;;;;;;1.42;0.20;;;;;;;14.78;100.00;99210.47;5025133;28;20064;-85
2022/09/28 11:53:24;;;;;;;1.27;0.20;;;;;;;14.86;100.00;99207.63;5047622;28;20381;-84
2022/09/28 11:55:55;;;;;;;1.10;0.20;;;;;;;15.00;100.00;99210.25;5039268;28;20033;-83
2022/09/28 11:58:49;;;;;;;2.38;0.22;;;;;;;15.06;100.00;99204.19;5042065;28;20087;-85
2022/09/28 12:01:34;;;;;;;3.55;0.20;;;;;;;15.15;100.00;99195.88;5041213;28;20049;-84